createdAt,value
2017-08-23T00:00:23.398Z,15.90
2017-08-23T00:02:50.996Z,15.90
2017-08-23T00:05:18.720Z,15.80
2017-08-23T00:07:46.386Z,15.80
2017-08-23T00:10:14.233Z,15.70
2017-08-23T00:12:41.827Z,15.70
2017-08-23T00:15:09.336Z,15.60
2017-08-23T00:17:36.827Z,15.70
2017-08-23T00:20:04.602Z,15.60
2017-08-23T00:22:32.150Z,15.60
2017-08-23T00:25:28.752Z,15.50
2017-08-23T00:27:56.268Z,15.50
2017-08-23T00:30:23.860Z,15.60
2017-08-23T00:32:51.334Z,15.50
2017-08-23T00:35:19.201Z,15.40
2017-08-23T00:37:46.917Z,15.40
2017-08-23T00:40:14.471Z,15.40
2017-08-23T00:42:42.030Z,15.40
2017-08-23T00:45:09.687Z,15.40
2017-08-23T00:47:37.399Z,15.40
2017-08-23T00:50:05.972Z,15.40
2017-08-23T00:52:33.559Z,15.40
2017-08-23T00:55:01.202Z,15.40
2017-08-23T00:57:28.775Z,15.30
2017-08-23T00:59:56.445Z,15.30
2017-08-23T01:02:23.930Z,15.30
2017-08-23T01:04:51.403Z,15.30
2017-08-23T01:07:18.905Z,15.20
2017-08-23T01:09:46.555Z,15.20
2017-08-23T01:12:14.156Z,15.20
2017-08-23T01:14:43.344Z,15.20
2017-08-23T01:17:10.970Z,15.10
2017-08-23T01:19:38.700Z,15.00
2017-08-23T01:22:06.350Z,15.00
2017-08-23T01:24:33.871Z,14.90
2017-08-23T01:27:01.476Z,14.90
2017-08-23T01:29:29.219Z,14.90
2017-08-23T01:31:56.720Z,14.90
2017-08-23T01:34:24.408Z,14.90
2017-08-23T01:36:52.180Z,14.90
2017-08-23T01:39:19.856Z,14.90
2017-08-23T01:41:47.502Z,14.80
2017-08-23T01:44:15.134Z,14.90
2017-08-23T01:46:42.629Z,14.80
2017-08-23T01:49:10.362Z,14.80
2017-08-23T01:51:37.885Z,14.70
2017-08-23T01:54:05.397Z,14.70
2017-08-23T01:56:33.044Z,14.80
2017-08-23T01:59:00.613Z,14.70
2017-08-23T02:01:28.076Z,14.70
2017-08-23T02:03:55.649Z,14.70
2017-08-23T02:06:23.262Z,14.70
2017-08-23T02:08:50.818Z,14.70
2017-08-23T02:11:18.566Z,14.60
2017-08-23T02:13:46.062Z,14.60
2017-08-23T02:16:14.671Z,14.60
2017-08-23T02:18:42.132Z,14.60
2017-08-23T02:21:10.523Z,14.60
2017-08-23T02:23:38.175Z,14.60
2017-08-23T02:26:06.462Z,14.50
2017-08-23T02:28:34.725Z,14.50
2017-08-23T02:31:02.562Z,14.50
2017-08-23T02:33:30.044Z,14.40
2017-08-23T02:35:57.728Z,14.40
2017-08-23T02:38:25.279Z,14.30
2017-08-23T02:40:52.728Z,14.20
2017-08-23T02:43:20.437Z,14.20
2017-08-23T02:45:48.127Z,14.20
2017-08-23T02:48:15.830Z,14.10
2017-08-23T02:50:43.699Z,14.10
2017-08-23T02:53:12.011Z,14.10
2017-08-23T02:55:39.630Z,14.10
2017-08-23T02:58:07.296Z,14.10
2017-08-23T03:00:34.948Z,14.10
2017-08-23T03:03:03.345Z,14.10
2017-08-23T03:05:31.607Z,14.10
2017-08-23T03:07:59.881Z,14.10
2017-08-23T03:10:28.413Z,14.10
2017-08-23T03:12:56.116Z,14.10
2017-08-23T03:15:23.687Z,14.10
2017-08-23T03:17:51.368Z,14.10
2017-08-23T03:20:19.115Z,14.10
2017-08-23T03:22:46.616Z,14.00
2017-08-23T03:25:14.146Z,14.00
2017-08-23T03:27:41.868Z,14.00
2017-08-23T03:30:09.681Z,14.00
2017-08-23T03:32:37.574Z,14.00
2017-08-23T03:35:05.183Z,13.90
2017-08-23T03:37:32.742Z,13.90
2017-08-23T03:40:00.265Z,13.90
2017-08-23T03:42:27.832Z,13.90
2017-08-23T03:44:56.247Z,13.80
2017-08-23T03:47:23.810Z,13.80
2017-08-23T03:49:52.172Z,13.70
2017-08-23T03:52:19.711Z,13.70
2017-08-23T03:54:47.203Z,13.70
2017-08-23T03:57:15.466Z,13.70
2017-08-23T03:59:42.930Z,13.60
2017-08-23T04:02:10.487Z,13.60
2017-08-23T04:04:38.015Z,13.60
2017-08-23T04:07:05.512Z,13.60
2017-08-23T04:09:33.126Z,13.60
2017-08-23T04:12:00.899Z,13.60
2017-08-23T04:14:28.396Z,13.60
2017-08-23T04:16:55.951Z,13.50
2017-08-23T04:19:24.375Z,13.50
2017-08-23T04:21:51.858Z,13.50
2017-08-23T04:24:19.535Z,13.50
2017-08-23T04:26:47.082Z,13.50
2017-08-23T04:29:14.546Z,13.50
2017-08-23T04:31:42.031Z,13.50
2017-08-23T04:34:09.617Z,13.50
2017-08-23T04:36:37.127Z,13.50
2017-08-23T04:39:04.615Z,13.50
2017-08-23T04:41:32.149Z,13.50
2017-08-23T04:43:59.630Z,13.50
2017-08-23T04:46:27.110Z,13.50
2017-08-23T04:48:54.629Z,13.60
2017-08-23T04:51:22.159Z,13.60
2017-08-23T04:53:49.738Z,13.60
2017-08-23T04:56:17.272Z,13.60
2017-08-23T04:58:44.724Z,13.60
2017-08-23T05:01:12.224Z,13.60
2017-08-23T05:03:39.753Z,13.60
2017-08-23T05:06:07.346Z,13.60
2017-08-23T05:08:34.853Z,13.60
2017-08-23T05:11:03.321Z,13.70
2017-08-23T05:13:30.792Z,13.70
2017-08-23T05:15:58.367Z,13.70
2017-08-23T05:18:26.448Z,13.70
2017-08-23T05:20:54.073Z,13.70
2017-08-23T05:23:21.548Z,13.70
2017-08-23T05:25:49.256Z,13.70
2017-08-23T05:28:16.754Z,13.70
2017-08-23T05:30:44.234Z,13.70
2017-08-23T05:33:11.904Z,13.80
2017-08-23T05:35:39.489Z,13.80
2017-08-23T05:38:07.119Z,13.90
2017-08-23T05:40:34.957Z,14.00
2017-08-23T05:43:02.636Z,14.10
2017-08-23T05:45:30.103Z,14.20
2017-08-23T05:47:57.751Z,14.20
2017-08-23T05:50:25.562Z,14.30
2017-08-23T05:52:53.123Z,14.40
2017-08-23T05:55:20.640Z,14.50
2017-08-23T05:57:48.212Z,14.60
2017-08-23T06:00:15.808Z,14.70
2017-08-23T06:02:43.624Z,14.90
2017-08-23T06:05:11.183Z,15.00
2017-08-23T06:07:38.661Z,15.10
2017-08-23T06:10:06.194Z,15.30
2017-08-23T06:12:33.851Z,15.50
2017-08-23T06:15:01.429Z,15.70
2017-08-23T06:17:29.075Z,15.80
2017-08-23T06:19:56.871Z,15.80
2017-08-23T06:22:24.682Z,15.90
2017-08-23T06:24:52.564Z,16.00
2017-08-23T06:27:20.095Z,16.00
2017-08-23T06:29:47.600Z,16.00
2017-08-23T06:32:15.123Z,16.10
2017-08-23T06:34:42.729Z,16.20
2017-08-23T06:37:10.426Z,16.20
2017-08-23T06:39:37.932Z,16.30
2017-08-23T06:42:05.498Z,16.30
2017-08-23T06:44:33.148Z,16.40
2017-08-23T06:47:00.677Z,16.50
2017-08-23T06:49:28.296Z,16.60
2017-08-23T06:51:55.933Z,16.60
2017-08-23T06:54:23.506Z,16.60
2017-08-23T06:56:51.167Z,16.70
2017-08-23T06:59:18.631Z,17.20
2017-08-23T07:01:46.274Z,18.20
2017-08-23T07:04:14.080Z,19.50
2017-08-23T07:06:41.699Z,20.70
2017-08-23T07:09:09.189Z,21.60
2017-08-23T07:11:36.655Z,23.00
2017-08-23T07:14:04.292Z,23.80
2017-08-23T07:16:31.819Z,24.60
2017-08-23T07:18:59.314Z,25.00
2017-08-23T07:21:26.853Z,25.30
2017-08-23T07:23:54.653Z,25.70
2017-08-23T07:26:22.211Z,26.50
2017-08-23T07:28:49.731Z,27.80
2017-08-23T07:31:17.294Z,28.70
2017-08-23T07:33:44.959Z,28.70
2017-08-23T07:36:12.696Z,29.00
2017-08-23T07:38:40.190Z,29.30
2017-08-23T07:41:07.754Z,29.60
2017-08-23T07:43:36.125Z,30.30
2017-08-23T07:46:03.795Z,30.30
2017-08-23T07:48:31.337Z,30.00
2017-08-23T07:50:58.919Z,30.10
2017-08-23T07:53:26.579Z,30.00
2017-08-23T07:55:54.124Z,30.10
2017-08-23T07:58:21.910Z,29.90
2017-08-23T08:00:49.432Z,30.40
2017-08-23T08:03:16.991Z,30.30
2017-08-23T08:05:45.227Z,30.80
2017-08-23T08:08:14.252Z,30.70
2017-08-23T08:10:41.955Z,30.70
2017-08-23T08:13:10.319Z,30.90
2017-08-23T08:15:37.956Z,30.80
2017-08-23T08:18:05.415Z,31.10
2017-08-23T08:20:33.110Z,31.20
2017-08-23T08:23:00.628Z,30.90
2017-08-23T08:25:28.430Z,31.60
2017-08-23T08:27:55.986Z,31.80
2017-08-23T08:30:23.522Z,31.80
2017-08-23T08:32:51.019Z,31.80
2017-08-23T08:35:18.589Z,31.40
2017-08-23T08:37:46.241Z,31.50
2017-08-23T08:40:13.788Z,31.70
2017-08-23T08:42:41.215Z,32.20
2017-08-23T08:45:08.982Z,31.60
2017-08-23T08:47:37.434Z,31.30
2017-08-23T08:50:05.040Z,31.70
2017-08-23T08:52:32.543Z,32.00
2017-08-23T08:55:00.946Z,32.70
2017-08-23T08:57:28.444Z,32.70
2017-08-23T08:59:56.126Z,32.50
2017-08-23T09:02:23.850Z,32.30
2017-08-23T09:04:51.444Z,32.10
2017-08-23T09:07:19.207Z,32.10
2017-08-23T09:09:46.822Z,32.30
2017-08-23T09:12:14.327Z,33.00
2017-08-23T09:14:41.959Z,33.50
2017-08-23T09:17:09.671Z,33.90
2017-08-23T09:19:37.164Z,33.60
2017-08-23T09:22:04.796Z,33.40
2017-08-23T09:24:32.649Z,33.50
2017-08-23T09:27:00.279Z,33.60
2017-08-23T09:29:27.759Z,33.60
2017-08-23T09:31:55.327Z,32.20
2017-08-23T09:34:22.886Z,32.20
2017-08-23T09:36:50.559Z,32.20
2017-08-23T09:39:18.874Z,33.30
2017-08-23T09:41:46.372Z,33.20
2017-08-23T09:44:14.036Z,33.10
2017-08-23T09:46:41.567Z,33.40
2017-08-23T09:49:09.429Z,33.60
2017-08-23T09:51:37.134Z,33.70
2017-08-23T09:54:05.461Z,33.90
2017-08-23T09:56:33.440Z,33.90
2017-08-23T09:59:00.951Z,34.10
2017-08-23T10:01:29.589Z,33.60
2017-08-23T10:03:57.086Z,33.50
2017-08-23T10:06:25.671Z,34.60
2017-08-23T10:08:53.282Z,34.60
2017-08-23T10:11:21.112Z,34.20
2017-08-23T10:13:48.656Z,33.60
2017-08-23T10:16:16.264Z,32.30
2017-08-23T10:18:44.811Z,33.60
2017-08-23T10:21:12.556Z,33.60
2017-08-23T10:23:40.936Z,33.50
2017-08-23T10:26:08.820Z,33.50
2017-08-23T10:28:37.118Z,32.80
2017-08-23T10:31:04.982Z,32.70
2017-08-23T10:33:32.720Z,32.90
2017-08-23T10:36:00.491Z,33.00
2017-08-23T10:38:28.735Z,32.80
2017-08-23T10:40:57.454Z,32.90
2017-08-23T10:43:25.803Z,32.90
2017-08-23T10:45:53.611Z,32.90
2017-08-23T10:48:21.299Z,33.00
2017-08-23T10:50:49.106Z,33.10
2017-08-23T10:53:16.728Z,32.40
2017-08-23T10:55:44.528Z,32.60
2017-08-23T10:58:12.341Z,33.10
2017-08-23T11:00:39.947Z,32.40
2017-08-23T11:03:07.548Z,31.90
2017-08-23T11:05:35.214Z,31.50
2017-08-23T11:08:02.964Z,30.60
2017-08-23T11:10:30.606Z,29.70
2017-08-23T11:12:58.686Z,29.20
2017-08-23T11:15:26.486Z,28.60
2017-08-23T11:17:54.952Z,28.10
2017-08-23T11:20:23.014Z,28.10
2017-08-23T11:22:50.495Z,28.10
2017-08-23T11:25:18.219Z,28.10
2017-08-23T11:27:45.943Z,28.00
2017-08-23T11:30:14.393Z,27.90
2017-08-23T11:32:42.735Z,27.60
2017-08-23T11:35:10.398Z,27.60
2017-08-23T11:37:38.188Z,27.50
2017-08-23T11:40:05.845Z,27.30
2017-08-23T11:42:33.468Z,27.20
2017-08-23T11:45:01.024Z,27.10
2017-08-23T11:47:28.684Z,27.10
2017-08-23T11:49:56.295Z,27.20
2017-08-23T11:52:23.879Z,27.30
2017-08-23T11:54:52.131Z,27.10
2017-08-23T11:57:19.895Z,27.00
2017-08-23T11:59:48.222Z,27.00
2017-08-23T12:02:16.541Z,27.00
2017-08-23T12:04:44.938Z,27.10
2017-08-23T12:07:12.576Z,27.10
2017-08-23T12:09:40.173Z,27.20
2017-08-23T12:12:08.336Z,27.20
2017-08-23T12:14:36.752Z,27.00
2017-08-23T12:17:04.793Z,27.00
2017-08-23T12:19:32.463Z,27.10
2017-08-23T12:22:00.143Z,27.20
2017-08-23T12:24:27.729Z,27.40
2017-08-23T12:26:58.378Z,27.50
2017-08-23T12:29:26.839Z,27.50
2017-08-23T12:31:54.325Z,27.60
2017-08-23T12:34:21.946Z,27.60
2017-08-23T12:36:49.447Z,27.50
2017-08-23T12:39:17.759Z,27.20
2017-08-23T12:41:45.667Z,27.20
2017-08-23T12:44:13.153Z,27.40
2017-08-23T12:46:40.603Z,27.60
2017-08-23T12:49:08.343Z,27.70
2017-08-23T12:51:36.247Z,27.80
2017-08-23T12:54:03.831Z,27.80
2017-08-23T12:56:31.555Z,27.70
2017-08-23T12:58:59.341Z,27.60
2017-08-23T13:01:27.686Z,27.40
2017-08-23T13:03:55.381Z,27.40
2017-08-23T13:06:23.399Z,27.30
2017-08-23T13:08:51.234Z,27.50
2017-08-23T13:11:18.854Z,27.50
2017-08-23T13:13:47.056Z,27.60
2017-08-23T13:16:14.623Z,27.80
2017-08-23T13:18:42.900Z,28.00
2017-08-23T13:21:11.175Z,28.00
2017-08-23T13:23:38.767Z,28.00
2017-08-23T13:26:06.304Z,28.00
2017-08-23T13:28:33.961Z,27.80
2017-08-23T13:31:01.456Z,27.70
2017-08-23T13:33:29.229Z,27.70
2017-08-23T13:35:57.078Z,27.70
2017-08-23T13:38:24.604Z,27.80
2017-08-23T13:40:52.942Z,27.50
2017-08-23T13:43:20.585Z,27.50
2017-08-23T13:45:48.195Z,27.50
2017-08-23T13:48:15.749Z,27.50
2017-08-23T13:50:43.229Z,27.50
2017-08-23T13:53:11.478Z,27.60
2017-08-23T13:55:39.039Z,27.50
2017-08-23T13:58:06.545Z,27.80
2017-08-23T14:00:34.176Z,28.00
2017-08-23T14:03:01.947Z,27.80
2017-08-23T14:05:30.335Z,27.80
2017-08-23T14:07:58.593Z,27.90
2017-08-23T14:10:26.207Z,27.90
2017-08-23T14:12:53.996Z,28.00
2017-08-23T14:15:22.603Z,28.10
2017-08-23T14:17:50.127Z,28.10
2017-08-23T14:20:17.628Z,28.00
2017-08-23T14:22:45.168Z,27.90
2017-08-23T14:25:12.719Z,28.00
2017-08-23T14:27:40.403Z,27.90
2017-08-23T14:30:08.045Z,27.90
2017-08-23T14:32:35.593Z,28.00
2017-08-23T14:35:03.419Z,28.00
2017-08-23T14:37:31.033Z,27.90
2017-08-23T14:39:58.896Z,28.00
2017-08-23T14:42:26.560Z,28.10
2017-08-23T14:44:54.137Z,28.10
2017-08-23T14:47:22.470Z,28.20
2017-08-23T14:49:50.041Z,28.20
2017-08-23T14:52:17.507Z,28.20
2017-08-23T14:54:45.074Z,28.20
2017-08-23T14:57:12.550Z,28.20
2017-08-23T14:59:40.165Z,28.20
2017-08-23T15:02:07.767Z,28.10
2017-08-23T15:04:35.251Z,28.10
2017-08-23T15:07:02.815Z,28.10
2017-08-23T15:09:30.555Z,28.10
2017-08-23T15:11:58.174Z,28.10
2017-08-23T15:14:25.751Z,28.20
2017-08-23T15:16:53.612Z,28.20
2017-08-23T15:19:21.917Z,28.10
2017-08-23T15:21:49.491Z,27.90
2017-08-23T15:24:17.155Z,27.90
2017-08-23T15:26:45.036Z,27.80
2017-08-23T15:29:12.667Z,27.80
2017-08-23T15:31:40.307Z,27.80
2017-08-23T15:34:08.111Z,27.80
2017-08-23T15:36:36.607Z,27.90
2017-08-23T15:39:05.085Z,28.00
2017-08-23T15:41:32.607Z,28.00
2017-08-23T15:44:00.162Z,28.00
2017-08-23T15:46:27.753Z,27.90
2017-08-23T15:48:56.115Z,27.90
2017-08-23T15:51:24.017Z,27.90
2017-08-23T15:53:51.560Z,27.80
2017-08-23T15:56:19.274Z,27.80
2017-08-23T15:58:46.868Z,27.80
2017-08-23T16:01:15.355Z,27.60
2017-08-23T16:03:43.024Z,27.60
2017-08-23T16:06:10.566Z,27.50
2017-08-23T16:08:38.222Z,27.40
2017-08-23T16:11:05.968Z,27.30
2017-08-23T16:13:47.818Z,27.20
2017-08-23T16:16:15.440Z,27.20
2017-08-23T16:18:42.984Z,27.20
2017-08-23T16:21:10.786Z,27.00
2017-08-23T16:23:38.351Z,27.00
2017-08-23T16:26:05.971Z,27.00
2017-08-23T16:28:33.551Z,27.00
2017-08-23T16:31:01.132Z,26.90
2017-08-23T16:33:28.908Z,26.90
2017-08-23T16:35:56.679Z,27.00
2017-08-23T16:38:25.013Z,27.00
2017-08-23T16:40:53.421Z,27.00
2017-08-23T16:43:22.012Z,27.00
2017-08-23T16:45:50.343Z,27.00
2017-08-23T16:48:17.960Z,27.00
2017-08-23T16:50:45.612Z,27.00
2017-08-23T16:53:13.170Z,27.00
2017-08-23T16:55:40.703Z,26.90
2017-08-23T16:58:08.244Z,26.90
2017-08-23T17:00:36.061Z,26.80
2017-08-23T17:03:03.721Z,26.80
2017-08-23T17:05:31.689Z,26.70
2017-08-23T17:07:59.254Z,26.80
2017-08-23T17:10:26.951Z,26.80
2017-08-23T17:12:54.751Z,26.70
2017-08-23T17:15:23.027Z,26.60
2017-08-23T17:17:50.498Z,26.60
2017-08-23T17:20:18.188Z,26.60
2017-08-23T17:22:45.733Z,26.60
2017-08-23T17:25:13.400Z,26.60
2017-08-23T17:27:41.010Z,26.50
2017-08-23T17:30:08.604Z,26.50
2017-08-23T17:32:36.465Z,26.40
2017-08-23T17:35:04.039Z,26.40
2017-08-23T17:37:32.526Z,26.30
2017-08-23T17:40:00.031Z,26.30
2017-08-23T17:42:27.715Z,26.30
2017-08-23T17:44:56.129Z,26.10
2017-08-23T17:47:23.639Z,26.10
2017-08-23T17:49:51.230Z,26.10
2017-08-23T17:52:18.953Z,26.00
2017-08-23T17:54:46.438Z,25.90
2017-08-23T17:57:14.136Z,25.80
2017-08-23T17:59:41.799Z,25.80
2017-08-23T18:02:09.867Z,25.80
2017-08-23T18:04:38.199Z,25.70
2017-08-23T18:07:05.965Z,25.70
2017-08-23T18:09:33.467Z,25.70
2017-08-23T18:12:01.232Z,25.60
2017-08-23T18:14:28.844Z,25.50
2017-08-23T18:16:56.750Z,25.40
2017-08-23T18:19:24.269Z,25.40
2017-08-23T18:21:51.777Z,25.20
2017-08-23T18:24:19.451Z,25.20
2017-08-23T18:26:47.271Z,25.10
2017-08-23T18:29:15.186Z,25.10
2017-08-23T18:31:43.300Z,25.00
2017-08-23T19:55:35.026Z,23.00
2017-08-23T19:58:02.538Z,23.00
2017-08-23T20:00:30.008Z,22.90
2017-08-23T20:02:57.497Z,22.90
2017-08-23T20:05:25.026Z,23.00
2017-08-23T20:07:52.821Z,23.00
2017-08-23T20:10:21.209Z,23.00
2017-08-23T20:12:48.872Z,23.00
2017-08-23T20:15:17.150Z,22.90
2017-08-23T20:17:44.780Z,23.00
2017-08-23T20:20:12.263Z,22.90
2017-08-23T20:22:39.777Z,22.90
2017-08-23T20:25:07.274Z,22.90
2017-08-23T20:27:34.919Z,22.80
2017-08-23T20:30:02.450Z,22.80
2017-08-23T20:32:29.974Z,22.90
2017-08-23T20:34:57.417Z,22.90
2017-08-23T20:37:25.664Z,22.80
2017-08-23T20:39:53.228Z,22.80
2017-08-23T20:42:21.033Z,22.80
2017-08-23T20:44:48.479Z,22.80
2017-08-23T20:47:16.767Z,22.80
2017-08-23T20:49:44.295Z,22.80
2017-08-23T20:52:11.938Z,22.80
2017-08-23T20:54:39.478Z,22.90
2017-08-23T20:57:06.956Z,22.90
2017-08-23T20:59:34.518Z,22.90
2017-08-23T21:02:02.125Z,22.90
2017-08-23T21:04:30.363Z,22.90
2017-08-23T21:06:57.952Z,22.90
2017-08-23T21:09:26.275Z,22.90
2017-08-23T21:11:53.784Z,22.90
2017-08-23T21:14:21.300Z,23.00
2017-08-23T21:16:48.815Z,23.00
2017-08-23T21:19:16.326Z,23.00
2017-08-23T21:21:43.804Z,23.00
2017-08-23T21:24:12.141Z,23.10
2017-08-23T21:26:39.652Z,23.10
2017-08-23T21:29:07.260Z,23.10
2017-08-23T21:31:34.766Z,23.10
2017-08-23T21:34:02.239Z,23.10
2017-08-23T21:36:30.467Z,23.10
2017-08-23T21:38:57.948Z,23.10
2017-08-23T21:41:25.388Z,23.10
2017-08-23T21:43:52.932Z,23.10
2017-08-23T21:46:20.500Z,23.10
2017-08-23T21:48:48.001Z,23.00
2017-08-23T21:51:15.628Z,23.10
2017-08-23T21:53:43.229Z,23.10
2017-08-23T21:56:10.853Z,23.10
2017-08-23T21:58:38.505Z,23.10
2017-08-23T22:01:06.525Z,23.10
2017-08-23T22:03:34.075Z,23.10
2017-08-23T22:06:01.561Z,23.10
2017-08-23T22:08:29.122Z,23.10
2017-08-23T22:10:56.607Z,23.20
2017-08-23T22:13:24.261Z,23.20
2017-08-23T22:15:51.802Z,23.20
2017-08-23T22:18:20.046Z,23.20
2017-08-23T22:20:47.742Z,23.10
2017-08-23T22:23:15.423Z,23.10
2017-08-23T22:25:43.026Z,23.00
2017-08-23T22:28:10.795Z,23.00
2017-08-23T22:30:38.471Z,23.00
2017-08-23T22:33:06.955Z,23.00
2017-08-23T22:35:34.631Z,22.90
2017-08-23T22:38:02.520Z,22.90
2017-08-23T22:40:30.831Z,22.90
2017-08-23T22:42:58.712Z,22.90
2017-08-23T22:45:27.160Z,22.90
2017-08-23T22:47:54.758Z,22.80
2017-08-23T22:50:22.503Z,22.90
2017-08-23T22:52:50.100Z,22.90
2017-08-23T22:55:18.608Z,22.80
2017-08-23T22:57:46.796Z,22.80
2017-08-23T23:00:14.389Z,22.80
2017-08-23T23:02:41.864Z,22.80
2017-08-23T23:05:10.280Z,22.80
2017-08-23T23:07:38.016Z,22.80
2017-08-23T23:10:05.490Z,22.80
2017-08-23T23:12:32.982Z,22.80
2017-08-23T23:15:00.488Z,22.80
2017-08-23T23:17:28.493Z,22.80
2017-08-23T23:19:56.090Z,22.80
2017-08-23T23:22:23.731Z,22.80
2017-08-23T23:24:51.196Z,22.80
2017-08-23T23:27:18.703Z,22.80
2017-08-23T23:29:46.245Z,22.80
2017-08-23T23:32:14.557Z,22.80
2017-08-23T23:34:42.046Z,22.80
2017-08-23T23:37:09.656Z,22.80
2017-08-23T23:39:37.172Z,22.80
2017-08-23T23:42:04.744Z,22.80
2017-08-23T23:44:32.304Z,22.80
2017-08-23T23:46:59.931Z,22.80
2017-08-23T23:49:27.555Z,22.70
2017-08-23T23:51:55.143Z,22.70
2017-08-23T23:54:22.662Z,22.60
2017-08-23T23:56:50.154Z,22.50
2017-08-23T23:59:17.686Z,22.50
